Time;durP1;ratioP1;P1;durP2;ratioP2;P2;SDS_P1;SDS_P2;PMS_P1;PMS_P2;Temp;Humidity;BMP_temperature;BMP_pressure;BME280_temperature;BME280_humidity;BME280_pressure;Samples;Min_cycle;Max_cycle;Signal;HPM_P1;HPM_P2
2021/08/28 00:01:41;;;;;;;6.97;4.23;;;12.10;99.90;;;;;;5057722;28;20188;-89
2021/08/28 00:04:07;;;;;;;6.47;4.20;;;12.10;99.90;;;;;;5057855;28;20578;-89
2021/08/28 00:06:33;;;;;;;4.93;3.90;;;12.00;99.90;;;;;;5057671;28;20219;-89
2021/08/28 00:08:58;;;;;;;5.97;4.33;;;12.00;99.90;;;;;;5057009;28;20201;-89
2021/08/28 00:11:24;;;;;;;5.87;4.20;;;12.00;99.90;;;;;;5058258;28;20237;-89
2021/08/28 00:13:50;;;;;;;6.43;4.37;;;12.00;99.90;;;;;;5057024;28;20185;-89
2021/08/28 00:16:16;;;;;;;6.47;4.40;;;12.00;99.90;;;;;;5057042;28;20231;-89
2021/08/28 00:18:41;;;;;;;7.07;5.33;;;12.00;99.90;;;;;;5056620;28;20216;-89
2021/08/28 00:21:07;;;;;;;7.57;5.17;;;12.00;99.90;;;;;;5059144;28;20538;-89
2021/08/28 00:23:33;;;;;;;6.63;5.03;;;12.00;99.90;;;;;;5059076;28;20291;-89
2021/08/28 00:25:58;;;;;;;6.70;4.20;;;11.90;99.90;;;;;;5060308;28;20178;-89
2021/08/28 00:28:24;;;;;;;7.23;4.60;;;11.90;99.90;;;;;;5064886;28;20194;-89
2021/08/28 00:30:50;;;;;;;5.23;4.27;;;11.90;99.90;;;;;;5057438;28;20186;-89
2021/08/28 00:33:17;;;;;;;4.93;4.43;;;11.90;99.90;;;;;;5057885;28;20703;-89
2021/08/28 00:35:43;;;;;;;5.60;4.37;;;11.90;99.90;;;;;;5057151;28;20177;-89
2021/08/28 00:38:10;;;;;;;5.83;4.40;;;11.90;99.90;;;;;;5056612;28;20213;-89
2021/08/28 00:40:37;;;;;;;8.17;4.73;;;11.90;99.90;;;;;;5056712;28;20678;-89
2021/08/28 00:43:03;;;;;;;5.10;4.13;;;11.90;99.90;;;;;;5056598;28;20212;-89
2021/08/28 00:45:38;;;;;;;5.40;4.80;;;11.90;99.90;;;;;;5056563;28;20597;-89
2021/08/28 00:48:06;;;;;;;7.70;5.13;;;11.90;99.90;;;;;;5057717;28;20200;-89
2021/08/28 00:50:34;;;;;;;5.40;4.10;;;11.90;99.90;;;;;;5057687;28;20260;-89
2021/08/28 00:53:05;;;;;;;5.90;4.17;;;11.90;99.90;;;;;;5056248;28;20184;-89
2021/08/28 00:55:32;;;;;;;9.40;4.60;;;11.80;99.90;;;;;;5056286;28;20192;-89
2021/08/28 00:57:59;;;;;;;7.37;5.00;;;11.80;99.90;;;;;;5055953;28;20224;-89
2021/08/28 01:00:26;;;;;;;6.30;4.43;;;11.80;99.90;;;;;;5056989;28;20647;-89
2021/08/28 01:02:56;;;;;;;5.83;4.43;;;11.80;99.90;;;;;;5056002;28;20273;-89
2021/08/28 01:05:33;;;;;;;4.77;4.27;;;11.80;99.90;;;;;;5056207;28;20180;-89
2021/08/28 01:08:19;;;;;;;6.27;4.67;;;11.80;99.90;;;;;;5055924;28;20264;-89
2021/08/28 01:11:07;;;;;;;5.73;4.77;;;11.90;99.90;;;;;;5055889;28;20177;-89
2021/08/28 01:13:34;;;;;;;6.10;4.90;;;11.90;99.90;;;;;;5055573;28;20173;-89
2021/08/28 01:16:00;;;;;;;6.10;4.83;;;11.80;99.90;;;;;;5056181;28;20177;-89
2021/08/28 01:18:28;;;;;;;7.20;4.53;;;11.80;99.90;;;;;;5056447;28;20201;-87
2021/08/28 01:21:19;;;;;;;6.93;4.60;;;11.80;99.90;;;;;;5054868;28;20174;-87
2021/08/28 01:23:47;;;;;;;5.17;4.50;;;11.70;99.90;;;;;;5054652;28;20264;-87
2021/08/28 01:26:17;;;;;;;7.23;4.53;;;11.70;99.90;;;;;;5055799;28;20173;-87
2021/08/28 01:28:48;;;;;;;5.57;4.70;;;11.70;99.90;;;;;;5056389;28;20194;-87
2021/08/28 01:31:15;;;;;;;6.33;4.73;;;11.70;99.90;;;;;;5054766;28;20173;-87
2021/08/28 01:33:42;;;;;;;5.80;5.20;;;11.70;99.90;;;;;;5054383;28;20216;-87
2021/08/28 01:36:11;;;;;;;7.17;5.17;;;11.70;99.90;;;;;;5068153;28;20166;-87
2021/08/28 01:38:38;;;;;;;6.03;4.77;;;11.70;99.90;;;;;;5076493;28;20220;-87
2021/08/28 01:41:04;;;;;;;6.00;4.80;;;11.70;99.90;;;;;;5074324;28;20169;-87
2021/08/28 01:43:30;;;;;;;6.13;4.90;;;11.70;99.90;;;;;;5055329;28;20224;-87
2021/08/28 01:45:56;;;;;;;5.30;4.53;;;11.60;99.90;;;;;;5054395;28;20277;-87
2021/08/28 01:48:22;;;;;;;5.07;4.40;;;11.70;99.90;;;;;;5054437;28;20229;-87
2021/08/28 01:50:48;;;;;;;6.77;4.90;;;11.70;99.90;;;;;;5054554;28;20240;-87
2021/08/28 01:53:14;;;;;;;6.00;4.90;;;11.70;99.90;;;;;;5054410;28;20185;-87
2021/08/28 01:55:43;;;;;;;8.03;4.60;;;11.70;99.90;;;;;;5054748;28;20189;-87
2021/08/28 01:58:11;;;;;;;6.30;5.03;;;11.80;99.90;;;;;;5056693;28;20220;-87
2021/08/28 02:00:37;;;;;;;5.87;4.50;;;11.70;99.90;;;;;;5054858;28;20181;-87
2021/08/28 02:03:02;;;;;;;6.67;4.73;;;11.80;99.90;;;;;;5054220;28;20173;-87
2021/08/28 02:05:32;;;;;;;7.50;4.67;;;11.70;99.90;;;;;;5054367;28;20211;-87
2021/08/28 02:08:04;;;;;;;9.07;5.10;;;11.70;99.90;;;;;;5053683;28;20205;-87
2021/08/28 02:10:38;;;;;;;6.57;4.43;;;11.80;99.90;;;;;;5055302;28;20173;-88
2021/08/28 02:13:14;;;;;;;6.60;5.17;;;11.70;99.90;;;;;;5053609;28;20184;-88
2021/08/28 02:15:48;;;;;;;5.70;4.47;;;11.70;99.90;;;;;;5053648;28;20177;-88
2021/08/28 02:18:26;;;;;;;6.00;5.40;;;11.70;99.90;;;;;;5053191;28;20721;-88
2021/08/28 02:20:58;;;;;;;6.70;5.10;;;11.60;99.90;;;;;;5053477;28;20176;-87
2021/08/28 02:23:36;;;;;;;8.30;5.47;;;11.60;99.90;;;;;;5054432;28;20205;-88
2021/08/28 02:26:08;;;;;;;8.97;5.73;;;11.60;99.90;;;;;;5055121;28;20184;-87
2021/08/28 02:28:48;;;;;;;9.80;6.37;;;11.50;99.90;;;;;;5070297;28;20201;-87
2021/08/28 02:31:16;;;;;;;7.80;5.60;;;11.50;99.90;;;;;;5069813;28;20181;-87
2021/08/28 02:33:43;;;;;;;7.23;5.30;;;11.50;99.90;;;;;;5053052;28;20590;-87
2021/08/28 02:36:10;;;;;;;6.30;5.33;;;11.50;99.90;;;;;;5054821;28;20186;-87
2021/08/28 02:38:37;;;;;;;9.10;5.37;;;11.50;99.90;;;;;;5053795;28;20220;-86
2021/08/28 02:41:06;;;;;;;6.37;5.27;;;11.50;99.90;;;;;;5052887;28;20264;-86
2021/08/28 02:43:31;;;;;;;7.40;5.47;;;11.40;99.90;;;;;;5053505;28;20240;-86
2021/08/28 02:45:59;;;;;;;6.60;5.13;;;11.40;99.90;;;;;;5056871;28;20209;-86
2021/08/28 02:48:28;;;;;;;6.63;5.40;;;11.40;99.90;;;;;;5058053;28;20561;-85
2021/08/28 02:50:54;;;;;;;9.90;5.67;;;11.50;99.90;;;;;;5062651;28;20161;-85
2021/08/28 02:53:23;;;;;;;6.03;5.37;;;11.50;99.90;;;;;;5059065;28;20178;-86
2021/08/28 02:55:50;;;;;;;6.00;5.37;;;11.40;99.90;;;;;;5057320;28;20181;-85
2021/08/28 02:58:16;;;;;;;7.70;6.00;;;11.40;99.90;;;;;;5057091;28;20213;-86
2021/08/28 03:00:45;;;;;;;6.90;5.80;;;11.40;99.90;;;;;;5057532;28;20215;-85
2021/08/28 03:03:16;;;;;;;9.50;5.73;;;11.40;99.90;;;;;;5057426;28;20228;-85
2021/08/28 03:05:46;;;;;;;7.57;6.23;;;11.30;99.90;;;;;;5057846;28;20549;-85
2021/08/28 03:08:14;;;;;;;9.60;6.37;;;11.40;99.90;;;;;;5057157;28;20205;-86
2021/08/28 03:10:43;;;;;;;7.70;6.50;;;11.40;99.90;;;;;;5057314;28;20288;-86
2021/08/28 03:13:08;;;;;;;9.30;6.73;;;11.30;99.90;;;;;;5057353;28;20238;-86
2021/08/28 03:15:35;;;;;;;7.60;6.07;;;11.30;99.90;;;;;;5056920;28;20177;-85
2021/08/28 03:18:01;;;;;;;8.80;7.40;;;11.30;99.90;;;;;;5058532;28;20205;-85
2021/08/28 03:20:27;;;;;;;8.83;6.53;;;11.30;99.90;;;;;;5057986;28;20182;-85
2021/08/28 03:22:53;;;;;;;8.70;6.43;;;11.30;99.90;;;;;;5058416;28;20180;-85
2021/08/28 03:25:20;;;;;;;8.67;6.17;;;11.30;99.90;;;;;;5059059;28;20186;-85
2021/08/28 03:27:47;;;;;;;7.23;6.37;;;11.30;99.90;;;;;;5058724;28;20235;-85
2021/08/28 03:30:16;;;;;;;7.57;6.23;;;11.30;99.90;;;;;;5058988;28;20248;-85
2021/08/28 03:32:43;;;;;;;9.80;6.63;;;11.30;99.90;;;;;;5058060;28;20177;-85
2021/08/28 03:35:10;;;;;;;8.50;6.23;;;11.30;99.90;;;;;;5059447;28;20221;-85
2021/08/28 03:37:40;;;;;;;8.53;6.50;;;11.30;99.90;;;;;;5058552;28;20211;-85
2021/08/28 03:40:11;;;;;;;9.20;6.97;;;11.30;99.90;;;;;;5058331;28;20565;-85
2021/08/28 03:42:41;;;;;;;9.47;6.27;;;11.30;99.90;;;;;;5058258;28;20173;-85
2021/08/28 03:45:08;;;;;;;8.53;6.47;;;11.30;99.90;;;;;;5058304;28;20744;-85
2021/08/28 03:47:40;;;;;;;9.10;6.63;;;11.30;99.90;;;;;;5057560;28;20285;-85
2021/08/28 03:50:06;;;;;;;8.10;6.37;;;11.30;99.90;;;;;;5059537;28;20176;-85
2021/08/28 03:52:33;;;;;;;9.37;6.20;;;11.30;99.90;;;;;;5058309;28;20179;-85
2021/08/28 03:54:59;;;;;;;8.30;6.47;;;11.30;99.90;;;;;;5059331;28;20234;-85
2021/08/28 03:57:24;;;;;;;10.43;6.30;;;11.30;99.90;;;;;;5060184;28;20213;-85
2021/08/28 03:59:50;;;;;;;8.20;6.80;;;11.30;99.90;;;;;;5064659;28;20175;-85
2021/08/28 04:02:15;;;;;;;9.10;6.47;;;11.30;99.90;;;;;;5061104;28;20173;-85
2021/08/28 04:04:41;;;;;;;9.07;6.50;;;11.30;99.90;;;;;;5056796;28;20182;-85
2021/08/28 04:07:07;;;;;;;9.90;6.80;;;11.30;99.90;;;;;;5056038;28;20185;-85
2021/08/28 04:09:32;;;;;;;7.53;6.30;;;11.30;99.90;;;;;;5057227;28;20170;-85
2021/08/28 04:11:58;;;;;;;7.93;5.90;;;11.30;99.90;;;;;;5056030;28;20256;-85
2021/08/28 04:14:23;;;;;;;8.90;6.13;;;11.30;99.90;;;;;;5056642;28;20180;-85
2021/08/28 04:16:49;;;;;;;7.17;5.30;;;11.30;99.90;;;;;;5058394;28;20174;-84
2021/08/28 04:19:15;;;;;;;7.70;6.17;;;11.30;99.90;;;;;;5056986;28;20212;-85
2021/08/28 04:21:41;;;;;;;6.90;6.07;;;11.30;99.90;;;;;;5056553;28;20229;-85
2021/08/28 04:24:06;;;;;;;6.80;5.50;;;11.30;99.90;;;;;;5055707;28;20268;-86
2021/08/28 04:26:32;;;;;;;8.17;5.70;;;11.30;99.90;;;;;;5057370;28;20173;-86
2021/08/28 04:28:58;;;;;;;7.53;5.93;;;11.30;99.90;;;;;;5057532;28;20726;-86
2021/08/28 04:31:24;;;;;;;6.97;5.53;;;11.30;99.90;;;;;;5056779;28;20178;-87
2021/08/28 04:33:50;;;;;;;7.67;6.00;;;11.30;99.90;;;;;;5057774;28;20190;-86
2021/08/28 04:36:16;;;;;;;7.60;5.63;;;11.30;99.90;;;;;;5056706;28;20184;-86
2021/08/28 04:38:41;;;;;;;6.63;5.47;;;11.30;99.90;;;;;;5055890;28;20209;-86
2021/08/28 04:41:07;;;;;;;7.40;6.10;;;11.30;99.90;;;;;;5056166;28;20523;-86
2021/08/28 04:43:33;;;;;;;7.00;6.00;;;11.30;99.90;;;;;;5056288;28;20265;-86
2021/08/28 04:45:59;;;;;;;7.57;6.07;;;11.20;99.90;;;;;;5055814;28;20178;-86
2021/08/28 04:48:24;;;;;;;9.80;5.83;;;11.20;99.90;;;;;;5056719;28;20207;-86
2021/08/28 04:50:50;;;;;;;8.27;6.27;;;11.30;99.90;;;;;;5056621;28;20177;-85
2021/08/28 04:53:16;;;;;;;8.17;5.80;;;11.30;99.90;;;;;;5056338;28;20190;-86
2021/08/28 04:55:41;;;;;;;7.83;6.10;;;11.20;99.90;;;;;;5058058;28;20170;-86
2021/08/28 04:58:07;;;;;;;6.87;6.17;;;11.30;99.90;;;;;;5056198;28;20217;-86
2021/08/28 05:00:34;;;;;;;7.23;6.33;;;11.30;99.90;;;;;;5056634;28;20180;-86
2021/08/28 05:02:59;;;;;;;7.53;5.97;;;11.30;99.90;;;;;;5057088;28;20201;-86
2021/08/28 05:05:25;;;;;;;8.67;6.20;;;11.30;99.90;;;;;;5057326;28;20514;-86
2021/08/28 05:07:51;;;;;;;7.30;5.83;;;11.30;99.90;;;;;;5058679;28;20228;-86
2021/08/28 05:10:16;;;;;;;7.13;5.60;;;11.30;99.90;;;;;;5056689;28;20181;-86
2021/08/28 05:12:42;;;;;;;7.97;5.77;;;11.30;99.90;;;;;;5057277;28;20544;-86
2021/08/28 05:15:08;;;;;;;6.63;5.30;;;11.30;99.90;;;;;;5058822;28;20184;-86
2021/08/28 05:17:34;;;;;;;6.67;5.93;;;11.30;99.90;;;;;;5058982;28;20220;-88
2021/08/28 05:20:00;;;;;;;6.03;5.30;;;11.30;99.90;;;;;;5061353;28;20182;-86
2021/08/28 05:22:25;;;;;;;5.70;4.90;;;11.30;99.90;;;;;;5060715;28;20185;-85
2021/08/28 05:24:51;;;;;;;6.40;5.47;;;11.30;99.90;;;;;;5058353;28;20555;-86
2021/08/28 05:27:16;;;;;;;7.00;6.30;;;11.30;99.90;;;;;;5057649;28;20189;-85
2021/08/28 05:29:42;;;;;;;6.67;5.97;;;11.30;99.90;;;;;;5071174;28;20178;-86
2021/08/28 05:32:08;;;;;;;5.97;5.33;;;11.30;99.90;;;;;;5076469;28;20185;-85
2021/08/28 05:34:34;;;;;;;5.87;5.17;;;11.30;99.90;;;;;;5069104;28;20184;-86
2021/08/28 05:37:00;;;;;;;6.00;5.17;;;11.30;99.90;;;;;;5056191;28;20189;-86
2021/08/28 05:39:26;;;;;;;6.13;5.37;;;11.30;99.90;;;;;;5055899;28;20215;-86
2021/08/28 05:41:52;;;;;;;7.73;5.87;;;11.40;99.90;;;;;;5056309;28;20181;-86
2021/08/28 05:44:17;;;;;;;5.90;5.20;;;11.40;99.90;;;;;;5057507;28;20206;-86
2021/08/28 05:46:43;;;;;;;7.47;6.20;;;11.30;99.90;;;;;;5056884;28;20180;-86
2021/08/28 05:49:09;;;;;;;7.77;5.93;;;11.30;99.90;;;;;;5056560;28;20292;-87
2021/08/28 05:51:36;;;;;;;9.03;5.63;;;11.40;99.90;;;;;;5056467;28;20209;-86
2021/08/28 05:54:02;;;;;;;8.87;6.17;;;11.40;99.90;;;;;;5056129;28;20647;-86
2021/08/28 05:56:28;;;;;;;7.37;6.53;;;11.40;99.90;;;;;;5056086;28;20188;-88
2021/08/28 05:58:53;;;;;;;6.93;6.23;;;11.50;99.90;;;;;;5057353;28;20676;-87
2021/08/28 06:01:19;;;;;;;7.57;6.13;;;11.50;99.90;;;;;;5056065;28;20643;-87
2021/08/28 06:03:45;;;;;;;7.90;6.33;;;11.50;99.90;;;;;;5055330;28;20589;-87
2021/08/28 06:06:10;;;;;;;9.97;7.07;;;11.60;99.90;;;;;;5056678;28;20578;-87
2021/08/28 06:08:36;;;;;;;9.30;6.33;;;11.60;99.90;;;;;;5057148;28;20254;-87
2021/08/28 06:11:02;;;;;;;10.17;7.77;;;11.60;99.90;;;;;;5058410;28;20191;-88
2021/08/28 06:13:27;;;;;;;9.83;8.57;;;11.70;99.90;;;;;;5060974;28;20195;-88
2021/08/28 06:15:53;;;;;;;11.30;7.70;;;11.70;99.90;;;;;;5056647;28;20224;-88
2021/08/28 06:18:19;;;;;;;10.40;8.27;;;11.80;99.90;;;;;;5061568;28;20306;-87
2021/08/28 06:20:45;;;;;;;9.23;8.07;;;11.80;99.90;;;;;;5058900;28;20177;-87
2021/08/28 06:23:10;;;;;;;8.90;7.97;;;11.80;99.90;;;;;;5054474;28;20701;-88
2021/08/28 06:25:36;;;;;;;10.63;8.90;;;11.80;99.90;;;;;;5057663;28;20177;-88
2021/08/28 06:28:02;;;;;;;11.03;7.80;;;11.80;99.90;;;;;;5057433;28;20692;-87
2021/08/28 06:30:27;;;;;;;8.43;6.77;;;11.90;99.90;;;;;;5057406;28;20181;-87
2021/08/28 06:32:56;;;;;;;7.73;6.00;;;11.90;99.90;;;;;;5056998;28;20248;-88
2021/08/28 06:35:22;;;;;;;6.60;5.90;;;11.90;99.90;;;;;;5056979;28;20231;-88
2021/08/28 06:37:47;;;;;;;9.60;6.00;;;11.90;99.90;;;;;;5054388;28;20220;-89
2021/08/28 06:40:13;;;;;;;7.47;6.03;;;11.90;99.90;;;;;;5054861;28;20193;-88
2021/08/28 06:42:39;;;;;;;9.00;7.20;;;11.90;99.90;;;;;;5057446;28;20178;-87
2021/08/28 06:45:05;;;;;;;6.60;5.90;;;11.90;99.90;;;;;;5056862;28;20184;-88
2021/08/28 06:47:32;;;;;;;7.33;6.10;;;11.90;99.90;;;;;;5056210;28;20212;-87
2021/08/28 06:49:57;;;;;;;8.63;7.10;;;11.90;99.90;;;;;;5054713;28;20276;-88
2021/08/28 06:52:23;;;;;;;7.87;6.30;;;11.90;99.90;;;;;;5055545;28;20212;-87
2021/08/28 06:54:49;;;;;;;6.63;5.97;;;11.90;99.90;;;;;;5054588;28;20181;-88
2021/08/28 06:57:14;;;;;;;7.73;6.00;;;11.90;99.90;;;;;;5054887;28;20188;-87
2021/08/28 06:59:41;;;;;;;8.13;6.60;;;12.00;99.90;;;;;;5055161;28;20176;-87
2021/08/28 07:02:06;;;;;;;8.87;6.23;;;11.90;99.90;;;;;;5055881;28;20204;-87
2021/08/28 07:04:32;;;;;;;7.63;6.07;;;12.00;99.90;;;;;;5053364;28;20173;-87
2021/08/28 07:06:57;;;;;;;7.17;6.10;;;12.10;99.90;;;;;;5052988;28;20219;-88
2021/08/28 07:09:23;;;;;;;9.90;5.57;;;12.10;99.90;;;;;;5053379;28;20201;-87
2021/08/28 07:11:49;;;;;;;7.77;5.93;;;12.10;99.90;;;;;;5054425;28;20257;-87
2021/08/28 07:14:15;;;;;;;7.73;6.77;;;12.20;99.90;;;;;;5052897;28;20185;-87
2021/08/28 07:16:40;;;;;;;7.90;7.20;;;12.20;99.90;;;;;;5052839;28;20182;-87
2021/08/28 07:19:06;;;;;;;10.33;6.57;;;12.30;99.90;;;;;;5052849;28;20690;-87
2021/08/28 07:21:31;;;;;;;7.83;5.97;;;12.40;99.90;;;;;;5053119;28;20268;-87
2021/08/28 07:23:57;;;;;;;7.87;6.00;;;12.40;99.90;;;;;;5052774;28;20248;-87
2021/08/28 07:26:23;;;;;;;7.73;5.93;;;12.50;99.90;;;;;;5052153;28;20185;-88
2021/08/28 07:28:48;;;;;;;10.10;6.00;;;12.40;99.90;;;;;;5053603;28;20197;-88
2021/08/28 07:31:14;;;;;;;6.63;5.93;;;12.40;99.90;;;;;;5052491;28;20523;-88
2021/08/28 07:33:40;;;;;;;6.57;5.33;;;12.40;99.90;;;;;;5056804;28;20707;-88
2021/08/28 07:36:06;;;;;;;6.73;4.47;;;12.30;99.90;;;;;;5055561;28;20191;-88
2021/08/28 07:38:31;;;;;;;5.13;4.43;;;12.20;99.90;;;;;;5057178;28;20223;-88
2021/08/28 07:40:57;;;;;;;5.53;4.47;;;12.10;99.90;;;;;;5057736;28;20180;-88
2021/08/28 07:43:23;;;;;;;7.33;5.07;;;12.10;99.90;;;;;;5056564;28;20216;-88
2021/08/28 07:45:48;;;;;;;5.00;4.47;;;12.00;99.90;;;;;;5061088;28;20172;-88
2021/08/28 07:48:14;;;;;;;5.83;5.10;;;12.00;99.90;;;;;;5055495;28;20292;-88
2021/08/28 07:50:40;;;;;;;10.77;6.43;;;11.90;99.90;;;;;;5057090;28;20181;-88
2021/08/28 07:53:05;;;;;;;7.53;6.07;;;12.00;99.90;;;;;;5055935;28;20647;-88
2021/08/28 07:55:31;;;;;;;5.07;4.23;;;12.00;99.90;;;;;;5056966;28;20260;-87
2021/08/28 07:57:57;;;;;;;5.67;4.30;;;12.00;99.90;;;;;;5055899;28;20209;-88
2021/08/28 08:00:23;;;;;;;5.00;4.50;;;11.90;99.90;;;;;;5055846;28;20517;-88
2021/08/28 08:02:48;;;;;;;6.50;4.83;;;11.90;99.90;;;;;;5055413;28;20183;-88
2021/08/28 08:05:14;;;;;;;6.23;4.80;;;11.90;99.90;;;;;;5055562;28;20185;-88
2021/08/28 08:07:40;;;;;;;5.17;4.67;;;11.90;99.90;;;;;;5055461;28;20251;-88
2021/08/28 08:10:09;;;;;;;8.10;4.83;;;11.90;99.90;;;;;;5055346;28;20284;-88
2021/08/28 08:12:35;;;;;;;5.27;4.77;;;11.90;99.90;;;;;;5055363;28;20184;-87
2021/08/28 08:15:02;;;;;;;5.37;4.37;;;11.90;99.90;;;;;;5057666;28;20170;-87
2021/08/28 08:17:27;;;;;;;7.27;4.67;;;11.80;99.90;;;;;;5055827;28;20216;-87
2021/08/28 08:19:53;;;;;;;3.83;3.50;;;11.90;99.90;;;;;;5056527;28;20268;-87
2021/08/28 08:22:19;;;;;;;6.20;3.10;;;11.90;99.90;;;;;;5056042;28;20180;-86
2021/08/28 08:24:45;;;;;;;3.70;3.20;;;11.90;99.90;;;;;;5056842;28;20651;-86
2021/08/28 08:27:12;;;;;;;3.90;2.83;;;11.90;99.90;;;;;;5056659;28;20173;-86
2021/08/28 08:29:37;;;;;;;3.97;3.50;;;11.90;99.90;;;;;;5057879;28;20177;-87
2021/08/28 08:32:04;;;;;;;5.17;4.60;;;11.90;99.90;;;;;;5056095;28;20177;-86
2021/08/28 08:34:29;;;;;;;5.57;5.07;;;11.90;99.90;;;;;;5059197;28;20166;-86
2021/08/28 08:36:55;;;;;;;4.20;3.80;;;12.10;99.90;;;;;;5057487;28;20532;-85
2021/08/28 08:39:22;;;;;;;4.90;4.20;;;12.20;99.90;;;;;;5059894;28;20213;-86
2021/08/28 08:41:50;;;;;;;4.50;2.90;;;12.20;99.90;;;;;;5067631;28;20181;-86
2021/08/28 08:44:16;;;;;;;5.73;2.23;;;12.30;99.90;;;;;;5077676;28;20169;-85
2021/08/28 08:46:44;;;;;;;10.13;7.20;;;12.30;99.90;;;;;;5078182;28;20180;-85
2021/08/28 08:49:12;;;;;;;3.77;3.37;;;12.40;99.90;;;;;;5078230;28;20285;-86
2021/08/28 08:51:38;;;;;;;4.23;2.10;;;12.60;99.90;;;;;;5077844;28;20233;-86
2021/08/28 08:54:05;;;;;;;2.63;2.10;;;12.70;99.90;;;;;;5078357;28;20184;-86
2021/08/28 08:56:31;;;;;;;1.87;1.60;;;12.80;99.90;;;;;;5079617;28;20535;-86
2021/08/28 08:58:57;;;;;;;1.67;1.47;;;12.90;99.90;;;;;;5078186;28;20208;-86
2021/08/28 09:01:23;;;;;;;2.70;1.80;;;13.10;99.90;;;;;;5079409;28;20306;-86
2021/08/28 09:03:49;;;;;;;2.20;2.00;;;13.10;99.90;;;;;;5076875;28;20233;-86
2021/08/28 09:06:15;;;;;;;2.17;1.97;;;13.20;99.90;;;;;;5079328;28;20222;-86
2021/08/28 09:08:41;;;;;;;2.10;1.80;;;13.30;99.90;;;;;;5077454;28;20193;-86
2021/08/28 09:11:21;;;;;;;2.50;2.30;;;13.20;99.90;;;;;;5078921;28;20268;-86
2021/08/28 09:13:47;;;;;;;3.67;2.57;;;13.20;99.90;;;;;;5076995;28;20230;-86
2021/08/28 09:16:28;;;;;;;3.17;2.87;;;13.20;99.90;;;;;;5078939;28;20181;-86
2021/08/28 09:18:54;;;;;;;7.57;5.10;;;13.30;99.90;;;;;;5078674;28;20204;-85
2021/08/28 09:21:22;;;;;;;4.80;4.10;;;13.30;99.90;;;;;;5078902;28;20219;-85
2021/08/28 09:23:49;;;;;;;3.30;2.73;;;13.30;99.90;;;;;;5078149;28;20543;-85
2021/08/28 09:26:36;;;;;;;5.20;4.17;;;13.20;99.90;;;;;;5078621;28;20294;-85
2021/08/28 09:29:04;;;;;;;4.00;3.43;;;13.20;99.90;;;;;;5077497;28;20247;-85
2021/08/28 09:31:45;;;;;;;4.87;4.37;;;13.20;99.90;;;;;;5076547;28;20259;-85
2021/08/28 09:34:30;;;;;;;4.70;3.90;;;13.30;99.90;;;;;;5077054;28;20172;-86
2021/08/28 09:37:02;;;;;;;3.50;3.20;;;13.30;99.90;;;;;;5078533;28;20180;-85
2021/08/28 09:39:49;;;;;;;3.20;2.77;;;13.30;99.90;;;;;;5075926;28;20224;-85
2021/08/28 09:42:20;;;;;;;4.20;2.97;;;13.20;99.90;;;;;;5077645;28;20263;-85
2021/08/28 09:44:47;;;;;;;6.77;4.13;;;13.20;99.90;;;;;;5076081;28;20670;-85
2021/08/28 09:47:20;;;;;;;5.20;4.13;;;13.20;99.90;;;;;;5077830;28;20189;-86
2021/08/28 09:49:47;;;;;;;5.80;4.20;;;13.30;99.90;;;;;;5075891;28;20161;-85
2021/08/28 09:52:19;;;;;;;6.30;4.40;;;13.30;99.90;;;;;;5075500;28;20518;-85
2021/08/28 09:54:45;;;;;;;4.67;3.87;;;13.30;99.90;;;;;;5075969;28;20157;-86
2021/08/28 09:57:11;;;;;;;5.43;4.23;;;13.40;99.90;;;;;;5076744;28;20177;-85
2021/08/28 09:59:37;;;;;;;5.70;4.03;;;13.30;99.90;;;;;;5078510;28;20181;-86
2021/08/28 10:02:09;;;;;;;2.50;2.30;;;13.30;99.90;;;;;;5077251;28;20264;-85
2021/08/28 10:04:57;;;;;;;6.83;4.70;;;13.20;99.90;;;;;;5082258;28;20173;-85
2021/08/28 10:07:27;;;;;;;7.07;5.43;;;13.20;99.90;;;;;;5078371;28;20165;-85
2021/08/28 10:09:57;;;;;;;6.43;4.53;;;13.10;99.90;;;;;;5077954;28;20166;-85
2021/08/28 10:12:24;;;;;;;10.60;5.33;;;13.00;99.90;;;;;;5076426;28;20172;-85
2021/08/28 10:14:52;;;;;;;6.17;4.30;;;12.90;99.90;;;;;;5074979;28;20181;-85
2021/08/28 10:17:19;;;;;;;4.90;3.83;;;12.90;99.90;;;;;;5074932;28;20177;-85
2021/08/28 10:19:49;;;;;;;7.93;4.10;;;12.70;99.90;;;;;;5075270;28;20557;-85
2021/08/28 10:22:19;;;;;;;3.43;3.13;;;12.80;99.90;;;;;;5077026;28;20193;-86
2021/08/28 10:24:47;;;;;;;5.23;3.50;;;12.70;99.90;;;;;;5075436;28;20161;-85
2021/08/28 10:27:13;;;;;;;2.93;2.67;;;12.70;99.90;;;;;;5074815;28;20176;-84
2021/08/28 10:29:40;;;;;;;4.80;3.53;;;12.90;99.90;;;;;;5074906;28;20168;-84
2021/08/28 10:32:06;;;;;;;3.10;2.80;;;12.90;99.90;;;;;;5074898;28;20201;-84
2021/08/28 10:34:33;;;;;;;4.60;3.17;;;13.00;99.90;;;;;;5074786;28;20180;-84
2021/08/28 10:36:59;;;;;;;4.13;3.20;;;13.10;99.90;;;;;;5074824;28;20267;-84
2021/08/28 10:39:25;;;;;;;3.83;3.43;;;13.20;99.90;;;;;;5076654;28;20740;-85
2021/08/28 10:41:52;;;;;;;2.77;2.40;;;13.50;99.90;;;;;;5076830;28;20169;-85
2021/08/28 10:44:18;;;;;;;2.63;1.80;;;13.60;99.90;;;;;;5075478;28;20237;-84
2021/08/28 10:46:44;;;;;;;2.23;1.80;;;13.70;99.90;;;;;;5075317;28;20255;-85
2021/08/28 10:49:11;;;;;;;1.60;1.50;;;13.80;99.90;;;;;;5075017;28;20203;-85
2021/08/28 10:51:40;;;;;;;2.57;1.60;;;14.10;99.90;;;;;;5075475;28;20248;-85
2021/08/28 10:54:11;;;;;;;3.17;1.53;;;14.10;99.90;;;;;;5076528;28;20173;-84
2021/08/28 10:56:46;;;;;;;2.07;1.87;;;14.20;99.90;;;;;;5076209;28;20177;-85
2021/08/28 10:59:22;;;;;;;1.80;1.60;;;14.40;99.90;;;;;;5074994;28;20204;-85
2021/08/28 11:02:10;;;;;;;1.60;1.40;;;14.50;99.90;;;;;;5074720;28;20173;-85
2021/08/28 11:04:42;;;;;;;2.67;1.80;;;14.60;99.90;;;;;;5074479;28;20665;-85
2021/08/28 11:07:28;;;;;;;1.40;1.30;;;14.60;99.90;;;;;;5076596;28;20173;-84
2021/08/28 11:10:09;;;;;;;1.23;1.13;;;14.40;99.90;;;;;;5078545;28;20177;-85
2021/08/28 11:13:02;;;;;;;1.77;1.50;;;14.20;99.90;;;;;;5079098;28;20192;-85
2021/08/28 11:15:28;;;;;;;1.70;1.60;;;13.90;99.90;;;;;;5074158;28;20271;-85
2021/08/28 11:17:55;;;;;;;2.00;1.80;;;13.80;99.90;;;;;;5079201;28;20705;-85
2021/08/28 11:20:32;;;;;;;3.00;1.83;;;13.60;99.90;;;;;;5078318;28;20256;-85
2021/08/28 11:23:01;;;;;;;1.80;1.40;;;13.50;99.90;;;;;;5079274;28;20179;-83
2021/08/28 11:25:32;;;;;;;2.07;1.60;;;13.30;99.90;;;;;;5084034;28;20172;-85
2021/08/28 11:27:59;;;;;;;1.70;1.40;;;13.20;99.90;;;;;;5078592;28;20670;-85
2021/08/28 11:30:48;;;;;;;2.07;1.40;;;13.10;99.90;;;;;;5078778;28;20259;-85
2021/08/28 11:33:20;;;;;;;1.97;1.77;;;13.00;99.90;;;;;;5065520;28;20223;-85
2021/08/28 11:36:07;;;;;;;4.67;2.73;;;12.90;99.90;;;;;;5078804;28;20268;-85
2021/08/28 11:38:38;;;;;;;1.50;1.40;;;12.90;99.90;;;;;;5078817;28;20246;-85
2021/08/28 11:41:21;;;;;;;3.20;1.90;;;12.80;99.90;;;;;;5078357;28;20165;-85
2021/08/28 11:43:47;;;;;;;4.47;3.07;;;12.80;99.90;;;;;;5078045;28;20175;-85
2021/08/28 11:46:16;;;;;;;4.23;2.90;;;12.80;99.90;;;;;;5077955;28;20789;-85
2021/08/28 11:48:45;;;;;;;3.10;2.33;;;12.80;99.90;;;;;;5078761;28;20554;-85
2021/08/28 11:51:20;;;;;;;7.67;3.57;;;12.90;99.90;;;;;;5078417;28;20205;-85
2021/08/28 11:53:51;;;;;;;5.40;3.17;;;13.00;99.90;;;;;;5078480;28;20176;-85
2021/08/28 11:56:22;;;;;;;2.43;2.17;;;13.10;99.90;;;;;;5078206;28;20264;-85
2021/08/28 11:58:56;;;;;;;2.87;2.40;;;13.20;99.90;;;;;;5079378;28;20200;-85
2021/08/28 12:01:31;;;;;;;4.70;2.33;;;13.30;99.90;;;;;;5077478;28;20173;-85
2021/08/28 12:04:03;;;;;;;3.80;2.13;;;13.40;99.90;;;;;;5077728;28;20165;-85
2021/08/28 12:06:29;;;;;;;2.37;2.17;;;13.50;99.90;;;;;;5079861;28;20633;-85
2021/08/28 12:08:55;;;;;;;3.73;2.57;;;13.50;99.90;;;;;;5079616;28;20235;-85
2021/08/28 12:11:23;;;;;;;8.00;4.57;;;13.50;99.90;;;;;;5077294;28;20181;-85
2021/08/28 12:13:57;;;;;;;5.17;3.33;;;13.50;99.90;;;;;;5078126;28;20184;-85
2021/08/28 12:16:29;;;;;;;4.60;2.87;;;13.50;99.90;;;;;;5076687;28;20164;-85
2021/08/28 12:19:00;;;;;;;3.73;2.73;;;13.40;99.90;;;;;;5075533;28;20219;-85
2021/08/28 12:21:27;;;;;;;2.80;2.60;;;13.40;99.90;;;;;;5076388;28;20173;-85
2021/08/28 12:23:53;;;;;;;3.20;2.90;;;13.30;99.90;;;;;;5078242;28;20209;-85
2021/08/28 12:26:20;;;;;;;4.87;3.30;;;13.30;99.90;;;;;;5096089;28;20161;-82
2021/08/28 12:28:46;;;;;;;3.60;3.27;;;13.30;99.90;;;;;;5090923;28;20697;-84
2021/08/28 12:31:12;;;;;;;4.77;3.70;;;13.30;99.90;;;;;;5089559;28;20169;-85
2021/08/28 12:33:37;;;;;;;7.03;3.70;;;13.30;99.90;;;;;;5086752;28;20199;-86
2021/08/28 12:36:03;;;;;;;3.83;3.43;;;13.40;99.90;;;;;;5079299;28;20177;-86
2021/08/28 12:38:30;;;;;;;3.00;2.70;;;13.40;99.90;;;;;;5078130;28;20213;-86
2021/08/28 12:40:57;;;;;;;4.10;3.00;;;13.40;99.90;;;;;;5078696;28;20266;-87
2021/08/28 12:43:25;;;;;;;2.70;2.50;;;13.50;99.90;;;;;;5077929;28;20173;-88
2021/08/28 12:45:52;;;;;;;2.20;2.00;;;13.60;99.90;;;;;;5076600;28;20201;-87
2021/08/28 12:48:18;;;;;;;2.97;2.00;;;13.70;99.90;;;;;;5078159;28;20250;-87
2021/08/28 12:50:44;;;;;;;2.63;2.00;;;13.90;99.90;;;;;;5075302;28;20181;-89